Time;durP1;ratioP1;P1;durP2;ratioP2;P2;SDS_P1;SDS_P2;PMS_P1;PMS_P2;Temp;Humidity;BMP_temperature;BMP_pressure;BME280_temperature;BME280_humidity;BME280_pressure;Samples;Min_cycle;Max_cycle;Signal;HPM_P1;HPM_P2
2021/08/08 00:04:13;;;;;;;9.33;4.50;;;;;15.40;99887.00;;;;10536340;28;20206;-79
2021/08/08 00:09:15;;;;;;;15.77;4.60;;;;;15.50;99911.00;;;;10517768;28;20192;-78
2021/08/08 00:14:16;;;;;;;8.77;3.47;;;;;15.50;99899.00;;;;10534348;28;20901;-79
2021/08/08 00:19:19;;;;;;;13.73;4.33;;;;;15.40;99912.00;;;;10550734;28;20240;-78
2021/08/08 00:24:21;;;;;;;20.33;4.10;;;;;15.50;99919.00;;;;10549777;28;20220;-78
2021/08/08 00:29:24;;;;;;;9.23;3.73;;;;;15.50;99934.00;;;;10550200;28;20191;-78
2021/08/08 00:34:26;;;;;;;14.30;3.73;;;;;15.50;99942.00;;;;10550196;28;20242;-78
2021/08/08 00:39:31;;;;;;;13.83;3.57;;;;;15.50;99938.00;;;;10555825;28;20200;-78
2021/08/08 00:44:34;;;;;;;17.20;4.33;;;;;15.50;99949.00;;;;10541779;28;20641;-78
2021/08/08 00:49:36;;;;;;;8.73;3.30;;;;;15.50;99955.00;;;;10542405;28;20187;-78
2021/08/08 00:54:39;;;;;;;17.30;4.10;;;;;15.30;99952.00;;;;10542870;27;20206;-78
2021/08/08 00:59:41;;;;;;;15.50;3.90;;;;;15.20;99960.00;;;;10540738;28;20208;-78
2021/08/08 01:04:52;;;;;;;11.77;3.33;;;;;15.20;99975.00;;;;10542343;28;20200;-78
2021/08/08 01:09:56;;;;;;;10.00;3.70;;;;;15.10;99980.00;;;;10541580;28;20188;-78
2021/08/08 01:14:59;;;;;;;13.10;3.70;;;;;15.20;99978.00;;;;10541278;28;20247;-77
2021/08/08 01:20:08;;;;;;;16.97;3.70;;;;;15.10;99983.00;;;;10525606;28;20219;-77
2021/08/08 01:25:20;;;;;;;15.83;4.23;;;;;15.10;99990.00;;;;10542376;27;20531;-77
2021/08/08 01:30:22;;;;;;;10.30;3.43;;;;;15.00;99989.00;;;;10556615;28;20192;-77
2021/08/08 01:35:37;;;;;;;10.50;3.77;;;;;14.90;99995.00;;;;10515364;28;20213;-78
2021/08/08 01:40:48;;;;;;;12.20;3.57;;;;;14.80;100004.00;;;;10514498;28;20208;-77
2021/08/08 01:45:54;;;;;;;15.87;3.97;;;;;14.80;100017.00;;;;10517339;28;20207;-77
2021/08/08 01:50:56;;;;;;;12.97;3.97;;;;;15.00;100013.00;;;;10538311;28;20196;-77
2021/08/08 01:55:58;;;;;;;15.07;3.67;;;;;15.10;100008.00;;;;10500163;28;20197;-77
2021/08/08 02:01:05;;;;;;;19.00;3.93;;;;;15.20;100019.00;;;;10530093;28;20207;-78
2021/08/08 02:06:10;;;;;;;13.47;4.27;;;;;15.30;100021.00;;;;10529853;28;20189;-77
2021/08/08 02:11:20;;;;;;;16.80;4.37;;;;;15.30;100034.00;;;;10497419;28;20180;-77
2021/08/08 02:16:31;;;;;;;15.43;3.57;;;;;15.40;100035.00;;;;10497194;28;20185;-78
2021/08/08 02:21:35;;;;;;;13.73;3.97;;;;;15.40;100036.00;;;;10512497;28;20213;-77
2021/08/08 02:26:37;;;;;;;15.00;4.17;;;;;15.30;100046.00;;;;10528262;28;20189;-77
2021/08/08 02:31:42;;;;;;;18.60;4.10;;;;;15.30;100036.00;;;;10495571;28;20193;-77
2021/08/08 02:36:51;;;;;;;14.67;3.80;;;;;15.30;100056.00;;;;10527913;28;20206;-77
2021/08/08 02:41:53;;;;;;;10.57;3.60;;;;;15.30;100043.00;;;;10511017;28;20225;-77
2021/08/08 02:46:56;;;;;;;13.43;3.70;;;;;15.20;100048.00;;;;10553120;28;20704;-77
2021/08/08 02:51:58;;;;;;;15.07;3.47;;;;;15.20;100065.00;;;;10536240;28;20195;-77
2021/08/08 02:57:04;;;;;;;15.33;3.90;;;;;15.10;100061.00;;;;10519891;28;20180;-77
2021/08/08 03:02:07;;;;;;;21.77;5.20;;;;;15.10;100055.00;;;;10518100;28;20215;-77
2021/08/08 03:07:10;;;;;;;18.03;4.10;;;;;15.10;100060.00;;;;10518707;28;20188;-77
2021/08/08 03:12:12;;;;;;;14.83;3.97;;;;;15.10;100086.00;;;;10536052;28;20180;-77
2021/08/08 03:17:16;;;;;;;19.60;4.20;;;;;15.10;100083.00;;;;10551135;28;20211;-77
2021/08/08 03:22:19;;;;;;;15.20;4.17;;;;;15.20;100086.00;;;;10533745;28;20685;-77
2021/08/08 03:27:21;;;;;;;16.03;4.23;;;;;15.10;100095.00;;;;10533425;28;20832;-77
2021/08/08 03:32:23;;;;;;;11.23;3.93;;;;;15.10;100091.00;;;;10516494;28;20212;-77
2021/08/08 03:37:26;;;;;;;13.30;4.70;;;;;15.10;100105.00;;;;10550299;28;20193;-76
2021/08/08 03:42:28;;;;;;;10.23;4.00;;;;;15.10;100112.00;;;;10532948;28;20216;-77
2021/08/08 03:47:33;;;;;;;14.33;4.17;;;;;15.00;100123.00;;;;10516502;28;20214;-77
2021/08/08 03:52:38;;;;;;;16.13;4.20;;;;;15.00;100115.00;;;;10517146;28;20196;-77
2021/08/08 03:57:41;;;;;;;17.43;4.07;;;;;15.00;100127.00;;;;10523511;28;20220;-77
2021/08/08 04:02:49;;;;;;;13.90;4.07;;;;;15.10;100122.00;;;;10523475;28;20308;-76
2021/08/08 04:07:55;;;;;;;18.67;4.27;;;;;15.10;100138.00;;;;10523301;28;20201;-77
2021/08/08 04:12:58;;;;;;;12.13;4.00;;;;;15.10;100132.00;;;;10524015;28;20301;-77
2021/08/08 04:18:00;;;;;;;16.23;4.97;;;;;15.20;100143.00;;;;10507400;28;20288;-77
2021/08/08 04:23:06;;;;;;;14.40;4.40;;;;;15.20;100137.00;;;;10522999;27;20214;-77
2021/08/08 04:28:10;;;;;;;13.20;3.70;;;;;15.20;100152.00;;;;10573976;27;20578;-77
2021/08/08 04:33:14;;;;;;;16.00;3.87;;;;;15.20;100150.00;;;;10590185;27;20208;-77
2021/08/08 04:38:16;;;;;;;12.50;3.77;;;;;15.20;100161.00;;;;10506818;28;20197;-77
2021/08/08 04:43:18;;;;;;;9.53;4.50;;;;;15.30;100170.00;;;;10506609;28;20225;-77
2021/08/08 04:48:25;;;;;;;13.17;3.37;;;;;15.30;100176.00;;;;10506513;28;20545;-77
2021/08/08 04:53:27;;;;;;;11.60;3.43;;;;;15.30;100174.00;;;;10505997;28;20188;-77
2021/08/08 04:58:29;;;;;;;10.87;3.73;;;;;15.30;100185.00;;;;10522252;28;20859;-76
2021/08/08 05:03:31;;;;;;;19.80;4.43;;;;;15.30;100193.00;;;;10508945;28;20247;-77
2021/08/08 05:08:33;;;;;;;12.73;3.63;;;;;15.30;100194.00;;;;10505964;28;20664;-76
2021/08/08 05:13:35;;;;;;;13.93;4.77;;;;;15.20;100199.00;;;;10506120;28;20177;-77
2021/08/08 05:18:38;;;;;;;14.83;4.17;;;;;15.10;100193.00;;;;10505618;28;20185;-77
2021/08/08 05:23:40;;;;;;;13.27;4.23;;;;;15.20;100203.00;;;;10507087;28;20189;-77
2021/08/08 05:28:42;;;;;;;14.57;4.63;;;;;15.50;100208.00;;;;10512616;28;20243;-77
2021/08/08 05:33:44;;;;;;;13.47;4.30;;;;;15.70;100214.00;;;;10512523;28;20235;-76
2021/08/08 05:38:46;;;;;;;13.90;4.57;;;;;15.80;100225.00;;;;10529434;28;20185;-77
2021/08/08 05:43:49;;;;;;;11.23;4.00;;;;;15.90;100234.00;;;;10481653;28;20772;-77
2021/08/08 05:48:51;;;;;;;14.13;4.80;;;;;16.10;100242.00;;;;10536740;28;20200;-77
2021/08/08 05:53:56;;;;;;;13.53;4.20;;;;;16.50;100253.00;;;;10567189;27;20215;-77
2021/08/08 05:58:58;;;;;;;7.83;3.57;;;;;16.70;100271.00;;;;10562811;27;20218;-77
2021/08/08 06:04:01;;;;;;;14.53;5.10;;;;;16.80;100279.00;;;;10563786;27;20212;-77
2021/08/08 06:09:04;;;;;;;16.90;4.20;;;;;17.00;100286.00;;;;10511978;28;20192;-77
2021/08/08 06:14:07;;;;;;;11.90;3.90;;;;;17.30;100293.00;;;;10553796;28;20291;-77
2021/08/08 06:19:09;;;;;;;14.13;4.20;;;;;17.70;100308.00;;;;10536572;28;20208;-76
2021/08/08 06:24:13;;;;;;;12.77;3.90;;;;;17.50;100300.00;;;;10536540;28;20196;-77
2021/08/08 06:29:15;;;;;;;11.25;3.55;;;;;17.40;100312.00;;;;10535983;28;20206;-77
2021/08/08 06:34:18;;;;;;;15.65;3.75;;;;;17.50;100304.00;;;;10551244;28;20265;-78
2021/08/08 06:39:20;;;;;;;9.30;3.20;;;;;18.20;100325.00;;;;10535765;28;20204;-77
2021/08/08 06:44:22;;;;;;;16.27;3.85;;;;;18.00;100321.00;;;;10569059;28;20200;-78
2021/08/08 06:49:24;;;;;;;15.75;2.90;;;;;18.40;100313.00;;;;10535319;28;20520;-78
2021/08/08 06:54:26;;;;;;;12.13;3.65;;;;;19.20;100335.00;;;;10552780;27;20210;-77
2021/08/08 06:59:31;;;;;;;11.57;3.35;;;;;19.50;100347.00;;;;10567870;28;20212;-77
2021/08/08 07:04:35;;;;;;;11.07;3.03;;;;;19.30;100351.00;;;;10534307;28;20188;-77
2021/08/08 07:09:37;;;;;;;10.38;2.78;;;;;19.70;100356.00;;;;10509073;28;20204;-78
2021/08/08 07:14:39;;;;;;;7.22;2.72;;;;;19.20;100365.00;;;;10475526;28;20189;-77
2021/08/08 07:19:42;;;;;;;10.02;2.97;;;;;18.40;100361.00;;;;10524954;28;20205;-77
2021/08/08 07:24:44;;;;;;;11.05;3.30;;;;;18.50;100357.00;;;;10475242;28;20220;-77
2021/08/08 07:29:47;;;;;;;13.90;3.47;;;;;18.50;100360.00;;;;10542842;28;20185;-77
2021/08/08 07:34:50;;;;;;;14.18;4.20;;;;;18.50;100354.00;;;;10501951;28;20209;-77
2021/08/08 07:39:52;;;;;;;13.50;3.25;;;;;18.60;100365.00;;;;10533149;28;20209;-77
2021/08/08 07:44:55;;;;;;;10.88;3.65;;;;;18.20;100361.00;;;;10566265;28;20200;-77
2021/08/08 07:49:57;;;;;;;12.57;3.40;;;;;18.00;100365.00;;;;10569852;27;20227;-77
2021/08/08 07:55:01;;;;;;;12.75;3.47;;;;;18.50;100366.00;;;;10614593;27;20191;-77
2021/08/08 08:00:05;;;;;;;12.77;3.28;;;;;18.80;100356.00;;;;10616559;27;20542;-76
2021/08/08 08:05:18;;;;;;;10.80;2.92;;;;;19.20;100359.00;;;;10567504;28;20192;-77
2021/08/08 08:10:20;;;;;;;9.35;2.65;;;;;19.60;100362.00;;;;10549291;28;20192;-77
2021/08/08 08:15:22;;;;;;;10.77;3.08;;;;;20.00;100365.00;;;;10549740;28;20188;-78
2021/08/08 08:20:25;;;;;;;9.15;2.50;;;;;20.20;100365.00;;;;10548973;28;20215;-77
2021/08/08 08:25:28;;;;;;;7.47;2.90;;;;;20.40;100374.00;;;;10532107;28;20199;-77
2021/08/08 08:30:31;;;;;;;9.43;2.58;;;;;20.30;100384.00;;;;10584913;27;20187;-77
2021/08/08 08:35:33;;;;;;;8.75;3.22;;;;;20.80;100378.00;;;;10565118;28;20682;-77
2021/08/08 08:40:36;;;;;;;7.22;2.47;;;;;20.70;100385.00;;;;10531943;28;20262;-77
2021/08/08 08:45:44;;;;;;;14.48;3.17;;;;;20.80;100388.00;;;;10551884;28;20198;-78
2021/08/08 08:50:53;;;;;;;10.63;3.38;;;;;20.80;100398.00;;;;10590570;28;20191;-77
2021/08/08 08:56:01;;;;;;;13.35;8.07;;;;;20.80;100397.00;;;;10557412;28;20192;-77
2021/08/08 09:01:08;;;;;;;24.10;13.18;;;;;21.10;100400.00;;;;10579771;27;20704;-77
2021/08/08 09:06:12;;;;;;;33.83;18.63;;;;;21.40;100409.00;;;;10581854;27;20195;-77
2021/08/08 09:11:14;;;;;;;29.08;18.40;;;;;21.60;100411.00;;;;10615781;27;20180;-77
2021/08/08 09:16:19;;;;;;;14.02;6.53;;;;;22.10;100409.00;;;;10598590;27;20183;-78
2021/08/08 09:21:23;;;;;;;17.42;7.85;;;;;23.10;100424.00;;;;10581687;27;20207;-77
2021/08/08 09:26:34;;;;;;;9.75;4.25;;;;;25.10;100414.00;;;;10542118;28;20292;-78
2021/08/08 09:31:47;;;;;;;9.55;2.60;;;;;25.40;100435.00;;;;10556112;28;20276;-77
2021/08/08 09:36:54;;;;;;;9.35;2.25;;;;;23.60;100426.00;;;;10595441;27;20542;-77
2021/08/08 09:42:13;;;;;;;8.60;3.90;;;;;22.30;100426.00;;;;10580656;27;20219;-77
2021/08/08 09:47:15;;;;;;;11.35;2.50;;;;;23.40;100401.00;;;;10615490;27;20175;-78
2021/08/08 09:52:21;;;;;;;6.38;1.95;;;;;23.60;100419.00;;;;10598370;27;20576;-78
2021/08/08 09:57:23;;;;;;;5.22;2.00;;;;;23.10;100418.00;;;;10555674;28;20192;-78
2021/08/08 10:02:25;;;;;;;10.35;2.55;;;;;25.00;100434.00;;;;10555883;28;20200;-78
2021/08/08 10:07:29;;;;;;;7.22;1.75;;;;;25.80;100423.00;;;;10538581;28;20220;-78
2021/08/08 10:12:43;;;;;;;5.95;2.05;;;;;26.20;100436.00;;;;10567779;27;20196;-78
2021/08/08 10:17:49;;;;;;;5.18;2.05;;;;;24.70;100431.00;;;;10555556;28;20192;-78
2021/08/08 10:22:54;;;;;;;8.13;2.20;;;;;25.70;100423.00;;;;10562106;27;20215;-78
2021/08/08 10:39:50;;;;;;;4.72;1.38;;;;;23.50;100439.00;;;;9816597;30;20320;-77
2021/08/08 10:44:54;;;;;;;7.93;1.95;;;;;25.00;100436.00;;;;9838278;30;20205;-78
2021/08/08 10:50:16;;;;;;;5.93;1.90;;;;;27.00;100429.00;;;;9837726;30;20252;-79
2021/08/08 10:55:24;;;;;;;4.15;1.50;;;;;26.80;100440.00;;;;9822100;30;20290;-79
2021/08/08 11:00:34;;;;;;;3.35;1.83;;;;;27.00;100437.00;;;;9837559;30;20713;-79
2021/08/08 11:05:36;;;;;;;4.65;1.48;;;;;26.70;100445.00;;;;9837089;30;20208;-78
2021/08/08 11:10:41;;;;;;;3.30;1.83;;;;;26.40;100454.00;;;;9821950;30;20227;-78
2021/08/08 11:15:44;;;;;;;5.95;1.92;;;;;26.60;100445.00;;;;9808276;30;20212;-78
2021/08/08 11:20:46;;;;;;;4.55;1.67;;;;;26.70;100457.00;;;;9836020;30;20225;-77
2021/08/08 11:25:48;;;;;;;6.20;2.40;;;;;26.80;100447.00;;;;9835990;30;20210;-79
2021/08/08 11:30:51;;;;;;;3.63;1.30;;;;;27.20;100452.00;;;;9806902;30;20221;-79
2021/08/08 11:35:59;;;;;;;3.67;1.60;;;;;27.10;100451.00;;;;9850677;30;20283;-78
2021/08/08 11:41:01;;;;;;;5.82;1.60;;;;;27.60;100444.00;;;;9820508;30;20697;-79
2021/08/08 11:46:03;;;;;;;4.90;1.60;;;;;28.00;100447.00;;;;9806031;30;20205;-78
2021/08/08 11:51:05;;;;;;;4.75;1.85;;;;;26.50;100457.00;;;;9791988;30;20217;-79
2021/08/08 11:56:13;;;;;;;4.03;1.67;;;;;26.40;100449.00;;;;9804368;30;20270;-79
2021/08/08 12:01:19;;;;;;;3.67;1.90;;;;;26.60;100450.00;;;;9834405;30;20224;-79
2021/08/08 12:06:23;;;;;;;4.97;1.83;;;;;27.40;100449.00;;;;9849861;30;20213;-80
2021/08/08 12:11:26;;;;;;;4.05;1.70;;;;;27.60;100463.00;;;;9805702;30;20215;-79
2021/08/08 12:16:46;;;;;;;3.78;1.80;;;;;26.20;100469.00;;;;9819828;30;20212;-79
2021/08/08 12:21:48;;;;;;;4.85;2.28;;;;;24.90;100471.00;;;;9797725;30;20290;-79
2021/08/08 12:26:52;;;;;;;7.55;2.00;;;;;24.50;100465.00;;;;9778832;30;20224;-79
2021/08/08 12:32:04;;;;;;;5.68;1.77;;;;;23.70;100473.00;;;;9820216;30;20714;-79
2021/08/08 12:37:10;;;;;;;3.22;1.45;;;;;24.60;100467.00;;;;9796631;30;20244;-79
2021/08/08 12:42:23;;;;;;;6.38;2.10;;;;;26.10;100480.00;;;;9783471;30;20244;-79
2021/08/08 12:47:26;;;;;;;3.30;1.45;;;;;27.80;100483.00;;;;9812061;30;20216;-78
2021/08/08 12:52:28;;;;;;;5.60;1.73;;;;;25.80;100529.00;;;;9754292;30;20285;-79
2021/08/08 12:57:30;;;;;;;4.53;1.30;;;;;22.80;100531.00;;;;9815551;30;20217;-78
2021/08/08 13:02:32;;;;;;;5.13;1.50;;;;;20.10;100531.00;;;;9809272;30;20237;-83
2021/08/08 13:07:34;;;;;;;3.90;2.00;;;;;18.50;100561.00;;;;9789308;30;20243;-83
2021/08/08 13:12:39;;;;;;;6.60;2.47;;;;;17.90;100568.00;;;;9823509;30;20222;-80
2021/08/08 13:17:43;;;;;;;5.15;2.17;;;;;18.40;100554.00;;;;9810625;30;20205;-80
2021/08/08 13:22:49;;;;;;;6.15;2.65;;;;;19.70;100552.00;;;;9784659;30;20239;-79
2021/08/08 13:27:51;;;;;;;4.28;2.80;;;;;22.40;100536.00;;;;9832633;30;20221;-79
2021/08/08 13:32:56;;;;;;;6.53;2.15;;;;;22.80;100541.00;;;;9818005;30;20209;-78
2021/08/08 13:37:57;;;;;;;5.53;2.80;;;;;21.40;100548.00;;;;9847595;30;20707;-78
2021/08/08 13:43:01;;;;;;;3.00;1.65;;;;;20.30;100542.00;;;;9802871;30;20233;-79
2021/08/08 13:48:03;;;;;;;2.55;1.85;;;;;18.70;100600.00;;;;9809432;30;20216;-79
2021/08/08 13:53:05;;;;;;;2.40;1.42;;;;;16.80;100595.00;;;;9846682;30;20674;-82
2021/08/08 13:58:06;;;;;;;4.72;1.17;;;;;15.30;100594.00;;;;9825715;30;20221;-81
2021/08/08 14:03:15;;;;;;;2.67;1.70;;;;;15.10;100577.00;;;;9810266;30;20240;-79
2021/08/08 14:08:17;;;;;;;2.33;1.40;;;;;15.60;100602.00;;;;9802141;30;20224;-79
2021/08/08 14:13:19;;;;;;;2.67;1.60;;;;;15.80;100595.00;;;;9787129;30;20255;-80
2021/08/08 14:18:21;;;;;;;6.30;2.50;;;;;15.80;100579.00;;;;9787692;30;20312;-81
2021/08/08 14:23:23;;;;;;;3.20;1.80;;;;;15.90;100578.00;;;;9778773;30;20232;-81
2021/08/08 14:28:25;;;;;;;6.23;2.40;;;;;16.20;100575.00;;;;9811619;30;20201;-81
2021/08/08 14:33:27;;;;;;;5.75;2.30;;;;;20.60;100571.00;;;;9823610;30;20255;-82
2021/08/08 14:38:29;;;;;;;4.68;2.33;;;;;24.40;100567.00;;;;9822384;30;20232;-79
2021/08/08 14:43:31;;;;;;;2.08;1.50;;;;;27.20;100564.00;;;;9808797;30;20248;-78
2021/08/08 14:48:33;;;;;;;2.80;1.52;;;;;28.30;100563.00;;;;9801456;30;20229;-79
2021/08/08 14:53:35;;;;;;;2.08;1.45;;;;;29.00;100561.00;;;;9805669;30;20243;-78
2021/08/08 14:58:38;;;;;;;3.08;1.30;;;;;29.50;100572.00;;;;9823316;30;20285;-77
2021/08/08 15:03:39;;;;;;;3.03;1.10;;;;;27.40;100601.00;;;;9822887;30;20228;-77
2021/08/08 15:08:42;;;;;;;3.78;1.45;;;;;25.10;100578.00;;;;9836958;30;20219;-77
2021/08/08 15:13:45;;;;;;;2.58;1.27;;;;;23.00;100610.00;;;;9851709;30;20237;-78
2021/08/08 15:18:46;;;;;;;3.33;1.73;;;;;20.10;100634.00;;;;9836897;30;20227;-78
2021/08/08 15:23:48;;;;;;;3.42;1.70;;;;;19.30;100646.00;;;;9804737;30;20314;-78
2021/08/08 15:28:51;;;;;;;2.88;1.95;;;;;18.60;100655.00;;;;9851623;30;20216;-78
2021/08/08 15:33:53;;;;;;;3.47;1.98;;;;;18.30;100646.00;;;;9770644;30;20217;-81
2021/08/08 15:38:56;;;;;;;2.20;1.30;;;;;19.20;100646.00;;;;9770340;30;20328;-79
2021/08/08 15:43:58;;;;;;;4.78;1.77;;;;;19.80;100645.00;;;;9799376;30;20245;-79
2021/08/08 15:48:59;;;;;;;2.42;1.42;;;;;21.80;100654.00;;;;9799288;30;20216;-78
2021/08/08 15:54:01;;;;;;;3.90;1.48;;;;;19.90;100658.00;;;;9770132;30;20222;-78
2021/08/08 15:59:03;;;;;;;2.72;1.63;;;;;19.30;100654.00;;;;9801438;30;20297;-79
2021/08/08 16:04:05;;;;;;;2.88;1.42;;;;;18.70;100656.00;;;;9787312;30;20245;-78
2021/08/08 16:09:07;;;;;;;2.90;1.60;;;;;18.90;100653.00;;;;9803426;30;20263;-78
2021/08/08 16:14:09;;;;;;;2.80;1.52;;;;;18.90;100655.00;;;;9791849;30;20239;-78
2021/08/08 16:19:11;;;;;;;4.72;2.30;;;;;18.40;100655.00;;;;9820601;30;20209;-78
2021/08/08 16:24:13;;;;;;;2.78;1.65;;;;;18.30;100657.00;;;;9805987;30;20236;-77
2021/08/08 16:29:15;;;;;;;3.63;1.90;;;;;18.60;100653.00;;;;9834880;30;20208;-77
2021/08/08 16:34:19;;;;;;;4.78;1.90;;;;;18.30;100656.00;;;;9834530;30;20254;-78
2021/08/08 16:39:20;;;;;;;3.47;1.77;;;;;18.10;100651.00;;;;9834795;30;20585;-77
2021/08/08 16:44:22;;;;;;;3.45;1.77;;;;;18.10;100651.00;;;;9805261;30;20966;-78
2021/08/08 16:49:24;;;;;;;3.67;1.95;;;;;18.40;100664.00;;;;9819798;30;20232;-78
2021/08/08 16:54:26;;;;;;;4.10;1.85;;;;;18.60;100663.00;;;;9805485;30;20221;-77
2021/08/08 16:59:28;;;;;;;4.82;1.90;;;;;19.30;100669.00;;;;9819487;30;20213;-77
2021/08/08 17:04:44;;;;;;;7.28;2.20;;;;;19.80;100673.00;;;;9803129;30;20240;-78
2021/08/08 17:09:45;;;;;;;4.30;2.30;;;;;19.60;100678.00;;;;9782824;30;20209;-77
2021/08/08 17:14:48;;;;;;;3.45;2.20;;;;;19.20;100672.00;;;;9768759;30;20716;-77
2021/08/08 17:19:50;;;;;;;6.30;2.17;;;;;19.00;100678.00;;;;9769961;30;20201;-77
2021/08/08 17:24:52;;;;;;;3.97;2.22;;;;;18.60;100670.00;;;;9819100;30;20237;-78
2021/08/08 17:29:54;;;;;;;6.68;2.25;;;;;18.30;100675.00;;;;9790035;30;20230;-76
2021/08/08 17:34:56;;;;;;;3.13;2.22;;;;;18.40;100676.00;;;;9806708;30;20221;-77
2021/08/08 17:39:58;;;;;;;7.05;2.42;;;;;18.60;100675.00;;;;9839206;30;20219;-77
2021/08/08 17:45:01;;;;;;;3.55;2.35;;;;;18.40;100678.00;;;;9824981;30;20221;-77
2021/08/08 17:50:04;;;;;;;6.40;2.30;;;;;18.20;100678.00;;;;9840226;30;20223;-77
2021/08/08 17:55:07;;;;;;;7.63;2.00;;;;;18.30;100689.00;;;;9824327;30;20213;-78
2021/08/08 18:00:10;;;;;;;6.15;2.35;;;;;18.30;100680.00;;;;9839278;30;20228;-77
2021/08/08 18:05:11;;;;;;;4.65;2.15;;;;;18.40;100690.00;;;;9838728;30;20229;-78
2021/08/08 18:10:14;;;;;;;5.13;1.90;;;;;18.50;100700.00;;;;9823981;30;20243;-78
2021/08/08 18:15:16;;;;;;;4.65;2.30;;;;;18.50;100705.00;;;;9837644;30;20209;-78
2021/08/08 18:20:20;;;;;;;5.70;2.30;;;;;18.50;100709.00;;;;9823684;30;20209;-77
2021/08/08 18:25:21;;;;;;;5.90;2.30;;;;;18.40;100717.00;;;;9823293;30;20237;-78
2021/08/08 18:30:24;;;;;;;6.40;2.53;;;;;18.40;100723.00;;;;9837815;30;20193;-77
2021/08/08 18:35:26;;;;;;;7.65;2.10;;;;;18.20;100733.00;;;;9852250;30;20220;-77
2021/08/08 18:40:28;;;;;;;5.30;2.05;;;;;17.90;100728.00;;;;9808231;30;20221;-77
2021/08/08 18:45:30;;;;;;;4.43;1.65;;;;;17.60;100737.00;;;;9807863;30;20234;-78
2021/08/08 18:50:32;;;;;;;10.45;2.28;;;;;17.30;100740.00;;;;9808141;30;20620;-77
2021/08/08 18:55:34;;;;;;;8.30;2.15;;;;;17.10;100728.00;;;;9819635;30;20681;-78
2021/08/08 19:00:37;;;;;;;4.28;1.95;;;;;16.90;100730.00;;;;9836523;30;20220;-78
2021/08/08 19:05:39;;;;;;;7.68;2.65;;;;;16.80;100740.00;;;;9835776;30;20228;-77
2021/08/08 19:10:41;;;;;;;7.57;2.30;;;;;16.70;100740.00;;;;9821171;30;20201;-77
2021/08/08 19:15:43;;;;;;;5.90;2.55;;;;;16.50;100739.00;;;;9792003;30;20666;-78
2021/08/08 19:20:50;;;;;;;10.20;2.40;;;;;16.40;100749.00;;;;9806542;30;20222;-77
2021/08/08 19:25:52;;;;;;;7.93;2.03;;;;;16.30;100751.00;;;;9820401;30;20208;-78
2021/08/08 19:30:56;;;;;;;7.47;2.60;;;;;16.20;100764.00;;;;9806547;30;20732;-78
2021/08/08 19:35:58;;;;;;;3.87;2.30;;;;;16.00;100776.00;;;;9805030;30;20232;-77
2021/08/08 19:41:00;;;;;;;9.83;2.50;;;;;15.90;100780.00;;;;9819718;30;20209;-77
2021/08/08 19:46:02;;;;;;;7.17;2.67;;;;;15.70;100774.00;;;;9805233;30;20209;-77
2021/08/08 19:51:04;;;;;;;8.67;2.40;;;;;15.60;100788.00;;;;9835404;30;20225;-78
2021/08/08 19:56:06;;;;;;;5.63;2.30;;;;;15.50;100786.00;;;;9819880;30;20240;-78
2021/08/08 20:01:08;;;;;;;7.33;3.10;;;;;15.30;100791.00;;;;9819985;30;20212;-77
2021/08/08 20:06:10;;;;;;;6.03;2.70;;;;;15.20;100797.00;;;;9819611;30;20658;-78
2021/08/08 20:11:12;;;;;;;4.93;2.50;;;;;15.10;100797.00;;;;9805120;30;20236;-78
2021/08/08 20:16:14;;;;;;;7.20;2.77;;;;;15.00;100798.00;;;;9819196;30;20554;-77
2021/08/08 20:21:17;;;;;;;7.83;3.13;;;;;14.90;100812.00;;;;9804118;30;20286;-77
2021/08/08 20:26:19;;;;;;;7.27;2.60;;;;;14.90;100812.00;;;;9789874;30;20270;-78
2021/08/08 20:31:21;;;;;;;12.07;2.83;;;;;15.00;100814.00;;;;9833709;30;20239;-78
2021/08/08 20:36:23;;;;;;;9.87;3.40;;;;;15.00;100828.00;;;;9818599;30;20705;-78
2021/08/08 20:41:25;;;;;;;7.63;2.80;;;;;14.90;100827.00;;;;9817917;30;20286;-77
2021/08/08 20:46:28;;;;;;;6.30;3.00;;;;;14.80;100827.00;;;;9818115;30;20231;-78
2021/08/08 20:51:31;;;;;;;6.27;2.80;;;;;14.70;100825.00;;;;9818283;30;20294;-77
2021/08/08 20:56:33;;;;;;;5.47;3.10;;;;;14.60;100829.00;;;;9837098;30;20218;-78
2021/08/08 21:01:37;;;;;;;5.63;2.73;;;;;14.50;100844.00;;;;9825872;30;20945;-77
2021/08/08 21:06:39;;;;;;;6.93;2.90;;;;;14.50;100838.00;;;;9825616;30;20208;-77
2021/08/08 21:11:43;;;;;;;7.33;3.57;;;;;14.40;100825.00;;;;9810863;30;20224;-77
2021/08/08 21:16:45;;;;;;;7.37;3.80;;;;;14.40;100829.00;;;;9825310;30;20197;-76
2021/08/08 21:21:47;;;;;;;10.43;3.87;;;;;14.40;100832.00;;;;9824265;30;20316;-77
2021/08/08 21:26:48;;;;;;;7.77;3.10;;;;;14.30;100838.00;;;;9824554;30;20213;-76
2021/08/08 21:31:50;;;;;;;8.23;3.27;;;;;14.30;100836.00;;;;9824859;30;20230;-76
2021/08/08 21:36:52;;;;;;;7.60;3.27;;;;;14.20;100836.00;;;;9838636;30;20232;-77
2021/08/08 21:41:54;;;;;;;7.50;3.40;;;;;14.20;100839.00;;;;9823979;30;20225;-77
2021/08/08 21:46:56;;;;;;;7.20;3.47;;;;;14.20;100837.00;;;;9801076;30;20214;-77
2021/08/08 21:51:58;;;;;;;6.93;3.60;;;;;14.10;100838.00;;;;9802026;30;20266;-77
2021/08/08 21:57:00;;;;;;;8.43;4.00;;;;;14.10;100856.00;;;;9830789;30;20217;-77
2021/08/08 22:02:03;;;;;;;7.50;3.77;;;;;14.00;100844.00;;;;9823254;30;20316;-76
2021/08/08 22:07:05;;;;;;;7.23;3.50;;;;;14.00;100849.00;;;;9808459;30;20263;-76
2021/08/08 22:12:07;;;;;;;9.03;4.00;;;;;14.00;100853.00;;;;9808326;30;20300;-78
2021/08/08 22:17:09;;;;;;;6.80;3.20;;;;;14.00;100852.00;;;;9822661;30;20720;-76
2021/08/08 22:22:11;;;;;;;9.57;3.20;;;;;14.30;100862.00;;;;9808875;30;20229;-77
2021/08/08 22:27:13;;;;;;;12.23;3.20;;;;;14.40;100868.00;;;;9807063;30;20224;-77
2021/08/08 22:32:15;;;;;;;8.67;3.00;;;;;14.40;100868.00;;;;9807815;30;20213;-77
2021/08/08 22:37:16;;;;;;;7.97;3.30;;;;;14.30;100868.00;;;;9851041;29;20221;-78
2021/08/08 22:42:18;;;;;;;9.00;3.13;;;;;14.30;100866.00;;;;9821542;30;20845;-77
2021/08/08 22:47:20;;;;;;;10.90;2.73;;;;;14.10;100878.00;;;;9851398;30;20262;-77
2021/08/08 22:52:22;;;;;;;10.43;3.30;;;;;14.00;100878.00;;;;9836150;30;20204;-76
2021/08/08 22:57:33;;;;;;;11.00;3.83;;;;;14.00;100883.00;;;;9804301;30;20216;-77
2021/08/08 23:02:35;;;;;;;6.50;3.00;;;;;13.90;100879.00;;;;9810272;30;20221;-78
2021/08/08 23:07:37;;;;;;;12.47;3.37;;;;;14.00;100879.00;;;;9821816;30;20209;-77
2021/08/08 23:12:42;;;;;;;7.53;3.10;;;;;13.90;100884.00;;;;9820987;30;20209;-77
2021/08/08 23:17:48;;;;;;;14.27;3.97;;;;;13.90;100888.00;;;;9819989;30;20208;-78
2021/08/08 23:22:49;;;;;;;6.40;3.27;;;;;13.80;100891.00;;;;9806606;30;20228;-77
2021/08/08 23:27:52;;;;;;;5.80;3.00;;;;;13.80;100894.00;;;;9805987;30;20221;-78
2021/08/08 23:32:54;;;;;;;12.57;2.83;;;;;13.70;100888.00;;;;9820513;30;20638;-77
2021/08/08 23:37:56;;;;;;;9.90;3.20;;;;;13.70;100886.00;;;;9834420;30;20225;-78
2021/08/08 23:42:58;;;;;;;9.90;2.87;;;;;13.80;100899.00;;;;9849839;30;20636;-78
2021/08/08 23:47:59;;;;;;;8.70;2.30;;;;;13.90;100905.00;;;;9834621;30;20217;-78
2021/08/08 23:53:01;;;;;;;6.63;2.63;;;;;14.10;100912.00;;;;9834525;30;20209;-76
2021/08/08 23:58:09;;;;;;;10.67;3.03;;;;;14.10;100909.00;;;;9848866;30;20538;-77
